createdAt,value
2018-02-20T00:34:36.323Z,25.12
2018-02-20T00:37:05.651Z,24.30
2018-02-20T00:39:35.202Z,24.65
2018-02-20T00:42:05.022Z,22.95
2018-02-20T00:44:34.351Z,23.02
2018-02-20T00:47:04.933Z,22.35
2018-02-20T00:49:35.025Z,23.02
2018-02-20T00:52:04.345Z,22.00
2018-02-20T00:54:34.210Z,22.37
2018-02-20T00:57:03.397Z,22.27
2018-02-20T00:59:32.272Z,22.85
2018-02-20T01:02:01.579Z,22.15
2018-02-20T01:04:30.798Z,21.37
2018-02-20T01:06:59.794Z,22.98
2018-02-20T01:09:28.876Z,22.60
2018-02-20T01:11:57.990Z,22.87
2018-02-20T01:14:26.872Z,23.67
2018-02-20T01:16:55.729Z,23.73
2018-02-20T01:21:58.706Z,22.90
2018-02-20T01:24:27.722Z,22.50
2018-02-20T01:26:57.402Z,22.50
2018-02-20T01:35:27.388Z,23.40
2018-02-20T01:37:56.386Z,23.40
2018-02-20T01:40:25.765Z,24.52
2018-02-20T01:42:54.642Z,23.25
2018-02-20T01:45:23.582Z,23.40
2018-02-20T01:47:52.424Z,22.13
2018-02-20T01:50:21.419Z,23.12
2018-02-20T01:52:51.125Z,23.60
2018-02-20T01:55:20.109Z,23.75
2018-02-20T01:57:49.303Z,24.73
2018-02-20T02:00:18.653Z,24.48
2018-02-20T02:02:47.775Z,23.85
2018-02-20T02:05:16.978Z,24.05
2018-02-20T02:07:45.868Z,23.65
2018-02-20T02:10:14.745Z,24.50
2018-02-20T02:12:43.621Z,23.70
2018-02-20T02:15:13.523Z,23.95
2018-02-20T02:17:42.388Z,24.37
2018-02-20T02:20:11.340Z,23.67
2018-02-20T02:22:40.388Z,25.27
2018-02-20T02:25:09.431Z,23.60
2018-02-20T02:27:38.332Z,23.00
2018-02-20T02:30:07.244Z,23.92
2018-02-20T02:32:36.411Z,26.10
2018-02-20T02:35:05.287Z,30.05
2018-02-20T02:37:34.339Z,42.58
2018-02-20T02:40:03.283Z,42.08
2018-02-20T02:42:32.221Z,47.13
2018-02-20T02:45:01.063Z,52.15
2018-02-20T02:47:30.015Z,36.55
2018-02-20T02:49:58.999Z,39.00
2018-02-20T02:52:27.948Z,40.95
2018-02-20T02:54:56.877Z,31.40
2018-02-20T02:57:25.973Z,30.12
2018-02-20T02:59:55.668Z,29.10
2018-02-20T03:02:24.753Z,29.52
2018-02-20T03:04:53.828Z,30.35
2018-02-20T03:07:22.748Z,31.00
2018-02-20T03:09:51.711Z,27.33
2018-02-20T03:12:20.811Z,31.23
2018-02-20T03:14:49.936Z,33.90
2018-02-20T03:17:18.878Z,25.42
2018-02-20T03:19:47.841Z,27.13
2018-02-20T03:22:16.735Z,26.33
2018-02-20T03:24:45.730Z,39.13
2018-02-20T03:27:15.376Z,32.03
2018-02-20T03:29:44.407Z,34.00
2018-02-20T03:32:13.304Z,30.73
2018-02-20T03:34:43.042Z,30.77
2018-02-20T03:37:12.678Z,29.27
2018-02-20T03:39:41.505Z,26.35
2018-02-20T03:42:10.430Z,32.30
2018-02-20T03:44:39.690Z,32.40
2018-02-20T03:47:08.584Z,35.88
2018-02-20T03:49:37.599Z,38.50
2018-02-20T03:52:06.464Z,55.75
2018-02-20T03:54:35.424Z,50.28
2018-02-20T03:57:04.527Z,69.85
2018-02-20T03:59:33.555Z,73.10
2018-02-20T04:02:02.784Z,70.35
2018-02-20T04:04:31.956Z,73.72
2018-02-20T04:07:00.848Z,60.35
2018-02-20T04:09:29.819Z,63.08
2018-02-20T04:11:58.768Z,67.95
2018-02-20T04:14:27.657Z,57.67
2018-02-20T04:16:56.569Z,73.47
2018-02-20T04:19:26.093Z,60.30
2018-02-20T04:21:55.040Z,56.20
2018-02-20T04:24:25.063Z,53.50
2018-02-20T04:26:54.762Z,80.07
2018-02-20T04:29:24.927Z,85.80
2018-02-20T04:31:53.880Z,47.40
2018-02-20T04:34:22.808Z,61.42
2018-02-20T04:36:51.768Z,49.00
2018-02-20T04:39:21.535Z,40.20
2018-02-20T04:41:50.461Z,34.55
2018-02-20T04:44:20.514Z,30.75
2018-02-20T04:46:49.445Z,36.28
2018-02-20T04:49:18.423Z,34.70
2018-02-20T04:51:48.328Z,43.38
2018-02-20T04:54:17.351Z,55.75
2018-02-20T04:56:46.337Z,37.45
2018-02-20T04:59:15.263Z,34.63
2018-02-20T05:01:45.128Z,38.00
2018-02-20T05:04:14.311Z,39.47
2018-02-20T05:06:43.496Z,43.53
2018-02-20T05:09:13.741Z,48.83
2018-02-20T05:11:42.726Z,53.15
2018-02-20T05:14:11.672Z,63.15
2018-02-20T05:16:40.648Z,43.80
2018-02-20T05:19:09.506Z,64.22
2018-02-20T05:21:38.586Z,90.32
2018-02-20T05:24:07.598Z,87.90
2018-02-20T05:26:36.590Z,102.55
2018-02-20T05:29:05.710Z,103.25
2018-02-20T05:31:34.678Z,95.15
2018-02-20T05:34:03.645Z,84.00
2018-02-20T05:36:32.570Z,82.40
2018-02-20T05:39:01.584Z,73.43
2018-02-20T05:41:30.616Z,89.78
2018-02-20T05:43:59.553Z,81.80
2018-02-20T05:46:28.602Z,84.53
2018-02-20T05:48:57.488Z,86.87
2018-02-20T05:51:26.483Z,104.72
2018-02-20T05:53:55.401Z,71.70
2018-02-20T05:56:24.258Z,57.85
2018-02-20T05:58:53.949Z,82.12
2018-02-20T06:01:23.681Z,99.43
2018-02-20T06:03:52.756Z,75.30
2018-02-20T06:06:22.547Z,65.10
2018-02-20T06:08:51.781Z,84.45
2018-02-20T06:11:20.724Z,86.32
2018-02-20T06:13:49.816Z,83.82
2018-02-20T06:16:19.780Z,81.22
2018-02-20T06:18:49.520Z,59.00
2018-02-20T06:21:18.376Z,75.12
2018-02-20T06:23:48.088Z,80.62
2018-02-20T06:26:17.805Z,59.00
2018-02-20T06:28:46.806Z,47.65
2018-02-20T06:31:15.708Z,59.90
2018-02-20T06:33:44.633Z,54.17
2018-02-20T06:36:13.550Z,56.50
2018-02-20T06:38:42.605Z,79.05
2018-02-20T06:41:11.664Z,76.12
2018-02-20T06:43:40.606Z,90.20
2018-02-20T06:46:09.569Z,60.40
2018-02-20T06:48:38.563Z,83.85
2018-02-20T06:51:07.479Z,57.75
2018-02-20T06:53:36.385Z,61.70
2018-02-20T06:56:05.362Z,63.75
2018-02-20T06:58:34.331Z,62.08
2018-02-20T07:01:03.311Z,60.83
2018-02-20T07:03:32.420Z,57.62
2018-02-20T07:06:01.526Z,50.53
2018-02-20T07:08:30.721Z,59.30
2018-02-20T07:10:59.719Z,52.50
2018-02-20T07:13:28.673Z,55.53
2018-02-20T07:15:57.820Z,66.03
2018-02-20T07:18:26.912Z,52.80
2018-02-20T07:20:55.960Z,44.88
2018-02-20T07:23:24.880Z,60.63
2018-02-20T07:25:53.856Z,45.58
2018-02-20T07:28:22.812Z,45.42
2018-02-20T07:30:52.041Z,62.55
2018-02-20T07:33:21.083Z,41.28
2018-02-20T07:35:50.015Z,48.87
2018-02-20T07:38:19.010Z,89.43
2018-02-20T07:40:49.076Z,51.65
2018-02-20T07:43:19.066Z,46.42
2018-02-20T07:45:48.040Z,49.65
2018-02-20T07:48:17.002Z,45.22
2018-02-20T07:50:45.892Z,46.93
2018-02-20T07:53:14.852Z,65.57
2018-02-20T07:55:43.787Z,41.92
2018-02-20T07:58:13.537Z,65.67
2018-02-20T08:00:42.440Z,45.25
2018-02-20T08:03:12.259Z,55.00
2018-02-20T08:05:41.193Z,73.13
2018-02-20T08:08:10.200Z,42.73
2018-02-20T08:10:39.418Z,76.70
2018-02-20T08:13:08.388Z,50.23
2018-02-20T08:15:38.102Z,49.83
2018-02-20T08:18:07.838Z,63.50
2018-02-20T08:20:36.948Z,66.03
2018-02-20T08:23:06.099Z,53.40
2018-02-20T08:25:35.790Z,47.53
2018-02-20T08:28:04.938Z,41.57
2018-02-20T08:30:33.900Z,63.37
2018-02-20T08:33:03.640Z,49.23
2018-02-20T08:35:32.827Z,71.67
2018-02-20T08:38:02.732Z,43.77
2018-02-20T08:40:31.610Z,49.30
2018-02-20T08:43:01.336Z,36.37
2018-02-20T08:45:30.271Z,51.57
2018-02-20T08:47:59.371Z,40.97
2018-02-20T08:50:28.325Z,30.93
2018-02-20T08:52:57.511Z,34.60
2018-02-20T08:55:27.199Z,139.73
2018-02-20T08:57:56.188Z,62.20
2018-02-20T09:00:25.878Z,36.37
2018-02-20T09:02:54.945Z,31.90
2018-02-20T09:05:23.884Z,43.10
2018-02-20T09:07:53.515Z,73.53
2018-02-20T09:10:23.229Z,90.97
2018-02-20T09:12:52.451Z,87.70
2018-02-20T09:15:21.309Z,64.37
2018-02-20T09:17:50.955Z,42.20
2018-02-20T09:20:19.908Z,45.70
2018-02-20T09:22:48.886Z,58.13
2018-02-20T09:25:18.918Z,39.73
2018-02-20T09:27:48.622Z,39.17
2018-02-20T09:30:17.958Z,51.50
2018-02-20T09:32:46.924Z,36.60
2018-02-20T09:35:16.148Z,31.10
2018-02-20T09:37:45.054Z,30.77
2018-02-20T09:40:14.014Z,37.23
2018-02-20T09:42:43.117Z,30.70
2018-02-20T09:45:12.911Z,28.53
2018-02-20T09:47:41.924Z,28.57
2018-02-20T09:50:10.835Z,36.17
2018-02-20T09:52:39.744Z,40.90
2018-02-20T09:55:09.039Z,30.57
2018-02-20T09:57:37.951Z,30.23
2018-02-20T10:00:07.189Z,31.20
2018-02-20T10:02:36.400Z,28.23
2018-02-20T10:05:05.672Z,31.77
2018-02-20T10:07:35.422Z,29.27
2018-02-20T10:10:04.360Z,31.97
2018-02-20T10:12:33.288Z,25.83
2018-02-20T10:15:02.225Z,29.70
2018-02-20T10:17:31.990Z,32.93
2018-02-20T10:20:00.964Z,30.37
2018-02-20T10:22:30.964Z,32.37
2018-02-20T10:24:59.863Z,31.87
2018-02-20T10:27:28.824Z,31.97
2018-02-20T10:29:57.707Z,35.80
2018-02-20T10:32:26.640Z,32.13
2018-02-20T10:34:55.724Z,38.50
2018-02-20T10:37:24.643Z,35.20
2018-02-20T10:39:54.436Z,38.67
2018-02-20T10:42:23.429Z,43.37
2018-02-20T10:44:52.426Z,35.17
2018-02-20T10:47:21.491Z,29.20
2018-02-20T10:49:50.506Z,35.53
2018-02-20T10:52:19.649Z,30.50
2018-02-20T10:54:48.608Z,41.97
2018-02-20T10:57:18.748Z,37.70
2018-02-20T10:59:47.651Z,38.90
2018-02-20T11:02:16.796Z,32.60
2018-02-20T11:04:46.520Z,33.83
2018-02-20T11:07:16.202Z,33.90
2018-02-20T11:09:45.167Z,35.53
2018-02-20T11:12:14.099Z,33.30
2018-02-20T11:14:42.972Z,34.70
2018-02-20T11:17:11.900Z,25.00
2018-02-20T11:19:41.656Z,28.27
2018-02-20T11:22:10.605Z,30.37
2018-02-20T11:24:40.612Z,31.63
2018-02-20T11:27:09.849Z,28.97
2018-02-20T11:29:39.758Z,30.27
2018-02-20T11:32:08.664Z,31.80
2018-02-20T11:34:38.524Z,27.77
2018-02-20T11:37:08.324Z,25.33
2018-02-20T11:39:38.155Z,26.57
2018-02-20T11:42:07.844Z,35.00
2018-02-20T11:44:37.004Z,32.73
2018-02-20T11:47:06.856Z,30.20
2018-02-20T11:49:36.194Z,30.13
2018-02-20T11:52:05.144Z,30.67
2018-02-20T11:54:34.368Z,32.50
2018-02-20T11:57:03.752Z,31.57
2018-02-20T11:59:32.696Z,33.20
2018-02-20T12:02:01.920Z,36.23
2018-02-20T12:04:30.858Z,35.20
2018-02-20T12:06:59.779Z,36.47
2018-02-20T12:09:28.701Z,41.43
2018-02-20T12:11:57.731Z,31.33
2018-02-20T12:14:27.614Z,34.00
2018-02-20T12:16:57.360Z,31.90
2018-02-20T12:19:27.075Z,32.37
2018-02-20T12:21:56.265Z,31.90
2018-02-20T12:24:25.295Z,28.67
2018-02-20T12:26:54.219Z,29.50
2018-02-20T12:29:23.175Z,36.97
2018-02-20T12:31:52.136Z,29.13
2018-02-20T12:34:22.175Z,27.63
2018-02-20T12:36:51.658Z,28.57
2018-02-20T12:39:21.540Z,27.93
2018-02-20T12:41:51.196Z,27.30
2018-02-20T12:44:20.107Z,27.47
2018-02-20T12:46:49.399Z,28.77
2018-02-20T12:49:18.391Z,28.87
2018-02-20T12:51:47.311Z,28.57
2018-02-20T12:54:16.386Z,27.77
2018-02-20T12:56:45.484Z,27.27
2018-02-20T12:59:15.207Z,29.10
2018-02-20T13:01:45.104Z,29.17
2018-02-20T13:04:14.237Z,27.83
2018-02-20T13:06:43.224Z,28.07
2018-02-20T13:09:13.035Z,29.60
2018-02-20T13:11:41.938Z,28.93
2018-02-20T13:14:11.985Z,28.50
2018-02-20T13:16:41.072Z,27.90
2018-02-20T13:19:10.753Z,28.97
2018-02-20T13:21:39.811Z,29.47
2018-02-20T13:24:08.825Z,25.03
2018-02-20T13:26:38.008Z,25.87
2018-02-20T13:29:06.980Z,24.17
2018-02-20T13:31:36.086Z,25.37
2018-02-20T13:34:04.998Z,26.73
2018-02-20T13:36:34.128Z,27.90
2018-02-20T13:39:03.625Z,27.23
2018-02-20T13:41:32.560Z,29.30
2018-02-20T13:44:01.516Z,26.27
2018-02-20T13:46:31.616Z,25.63
2018-02-20T13:49:00.706Z,23.40
2018-02-20T13:51:29.647Z,24.23
2018-02-20T13:53:59.501Z,24.43
2018-02-20T13:56:29.087Z,24.47
2018-02-20T13:58:57.995Z,27.87
2018-02-20T14:01:27.011Z,28.33
2018-02-20T14:03:56.007Z,31.60
2018-02-20T14:06:24.997Z,25.20
2018-02-20T14:08:54.000Z,24.80
2018-02-20T14:11:22.964Z,25.70
2018-02-20T14:13:52.931Z,24.27
2018-02-20T14:16:22.668Z,23.77
2018-02-20T14:18:51.880Z,24.17
2018-02-20T14:21:20.826Z,27.27
2018-02-20T14:23:49.760Z,25.30
2018-02-20T14:26:18.736Z,26.47
2018-02-20T14:28:48.469Z,26.53
2018-02-20T14:31:17.343Z,27.60
2018-02-20T14:33:46.374Z,28.13
2018-02-20T14:36:15.304Z,29.47
2018-02-20T14:38:44.443Z,29.10
2018-02-20T14:41:13.321Z,32.73
2018-02-20T14:43:42.288Z,33.37
2018-02-20T14:46:11.536Z,31.30
2018-02-20T14:48:40.477Z,31.17
2018-02-20T14:51:09.428Z,34.87
2018-02-20T14:53:38.369Z,31.33
2018-02-20T14:56:07.421Z,32.60
2018-02-20T14:58:37.098Z,32.37
2018-02-20T15:01:07.215Z,31.37
2018-02-20T15:03:37.201Z,31.40
2018-02-20T15:06:06.939Z,46.63
2018-02-20T15:08:36.057Z,56.87
2018-02-20T15:11:05.862Z,50.60
2018-02-20T15:13:35.747Z,39.80
2018-02-20T15:16:04.747Z,39.00
2018-02-20T15:18:33.673Z,38.33
2018-02-20T15:21:02.656Z,37.93
2018-02-20T15:23:31.599Z,36.60
2018-02-20T15:26:00.585Z,34.50
2018-02-20T15:28:30.387Z,36.67
2018-02-20T15:31:00.483Z,37.73
2018-02-20T15:33:29.444Z,61.17
2018-02-20T15:35:58.438Z,73.97
2018-02-20T15:38:27.359Z,67.17
2018-02-20T15:40:56.450Z,64.43
2018-02-20T15:43:25.426Z,63.90
2018-02-20T15:45:54.356Z,63.23
2018-02-20T15:48:24.151Z,74.50
2018-02-20T15:50:53.193Z,51.07
2018-02-20T15:53:22.892Z,44.63
2018-02-20T15:55:52.641Z,43.27
2018-02-20T15:58:21.738Z,50.40
2018-02-20T16:00:50.657Z,75.93
2018-02-20T16:03:19.707Z,76.73
2018-02-20T16:05:49.099Z,68.13
2018-02-20T16:08:18.026Z,63.83
2018-02-20T16:10:47.158Z,60.83
2018-02-20T16:13:16.872Z,53.93
2018-02-20T16:15:55.713Z,55.30
2018-02-20T16:18:25.550Z,64.23
2018-02-20T16:20:54.469Z,83.13
2018-02-20T16:23:23.408Z,62.50
2018-02-20T16:25:52.484Z,60.53
2018-02-20T16:28:21.640Z,55.80
2018-02-20T16:30:51.376Z,69.43
2018-02-20T16:33:20.406Z,65.07
2018-02-20T16:35:49.339Z,69.13
2018-02-20T16:38:18.336Z,58.90
2018-02-20T16:40:47.359Z,68.77
2018-02-20T16:43:17.137Z,63.57
2018-02-20T16:45:46.185Z,63.63
2018-02-20T16:48:15.249Z,63.97
2018-02-20T16:50:44.419Z,69.20
2018-02-20T16:53:14.430Z,72.57
2018-02-20T16:55:43.434Z,76.17
2018-02-20T16:58:12.386Z,69.43
2018-02-20T17:00:41.619Z,71.23
2018-02-20T17:03:10.632Z,60.43
2018-02-20T17:05:40.508Z,57.97
2018-02-20T17:08:09.482Z,60.63
2018-02-20T17:10:39.270Z,72.00
2018-02-20T17:13:08.492Z,95.67
2018-02-20T17:15:38.224Z,75.77
2018-02-20T17:18:07.072Z,66.70
2018-02-20T17:20:36.800Z,58.23
2018-02-20T17:23:05.729Z,71.60
2018-02-20T17:25:34.647Z,70.03
2018-02-20T17:28:03.594Z,61.10
2018-02-20T17:30:32.591Z,68.87
2018-02-20T17:33:01.528Z,49.00
2018-02-20T17:35:30.684Z,45.93
2018-02-20T17:38:00.787Z,43.53
2018-02-20T17:40:28.646Z,42.10
2018-02-20T17:42:58.356Z,43.67
2018-02-20T17:45:27.841Z,42.00
2018-02-20T17:47:56.783Z,42.83
2018-02-20T17:50:26.661Z,49.83
2018-02-20T17:52:56.429Z,53.90
2018-02-20T17:55:25.496Z,54.13
2018-02-20T17:57:54.456Z,48.30
2018-02-20T18:00:23.399Z,44.53
2018-02-20T18:02:52.440Z,46.67
2018-02-20T18:05:22.124Z,48.20
2018-02-20T18:07:51.077Z,50.30
2018-02-20T18:10:20.036Z,54.40
2018-02-20T18:12:49.054Z,58.53
2018-02-20T18:15:18.043Z,56.47
2018-02-20T18:17:46.993Z,54.73
2018-02-20T18:20:16.042Z,54.00
2018-02-20T18:22:45.905Z,51.97
2018-02-20T18:25:14.873Z,54.20
2018-02-20T18:27:44.117Z,54.27
2018-02-20T18:30:13.291Z,51.23
2018-02-20T18:32:42.225Z,49.27
2018-02-20T18:35:11.328Z,49.83
2018-02-20T18:37:40.247Z,49.70
2018-02-20T18:40:09.271Z,48.93
2018-02-20T18:42:38.967Z,46.47
2018-02-20T18:45:08.134Z,48.00
2018-02-20T18:47:37.227Z,48.53
2018-02-20T18:50:06.160Z,47.30
2018-02-20T18:52:35.791Z,47.20
2018-02-20T18:55:05.533Z,48.30
2018-02-20T18:57:34.509Z,47.43
2018-02-20T19:00:03.791Z,52.60
2018-02-20T19:02:33.496Z,55.43
2018-02-20T19:05:03.232Z,54.30
2018-02-20T19:07:32.143Z,58.70
2018-02-20T19:10:01.074Z,62.87
2018-02-20T19:12:30.053Z,59.50
2018-02-20T19:14:59.144Z,55.07
2018-02-20T19:17:28.122Z,50.70
2018-02-20T19:19:57.135Z,52.30
2018-02-20T19:22:26.209Z,50.57
2018-02-20T19:24:55.196Z,55.77
2018-02-20T19:27:24.092Z,56.43
2018-02-20T19:29:53.040Z,59.43
2018-02-20T19:32:22.868Z,60.13
2018-02-20T19:34:55.609Z,57.40
2018-02-20T19:37:24.534Z,56.27
2018-02-20T19:39:53.526Z,54.27
2018-02-20T19:42:22.551Z,54.70
2018-02-20T19:44:51.698Z,55.17
2018-02-20T19:47:20.694Z,53.63
2018-02-20T19:49:50.516Z,56.70
2018-02-20T19:52:19.742Z,58.20
2018-02-20T19:54:48.687Z,58.00
2018-02-20T19:57:17.639Z,59.60
2018-02-20T19:59:46.666Z,58.07
2018-02-20T20:02:16.317Z,59.83
2018-02-20T20:04:45.256Z,59.97
2018-02-20T20:07:14.214Z,58.20
2018-02-20T20:09:43.964Z,55.83
2018-02-20T20:12:13.135Z,55.77
2018-02-20T20:14:42.108Z,52.97
2018-02-20T20:17:11.053Z,47.47
2018-02-20T20:19:40.005Z,47.37
2018-02-20T20:22:08.969Z,46.37
2018-02-20T20:24:37.916Z,47.63
2018-02-20T20:27:06.953Z,47.40
2018-02-20T20:29:36.101Z,50.33
2018-02-20T20:32:05.053Z,49.50
2018-02-20T20:34:34.315Z,52.00
2018-02-20T20:37:03.299Z,49.77
2018-02-20T20:39:32.304Z,50.70
2018-02-20T20:42:01.291Z,51.07
2018-02-20T20:44:30.254Z,50.87
2018-02-20T20:47:00.013Z,50.30
2018-02-20T20:49:29.761Z,51.80
2018-02-20T20:51:58.688Z,75.27
2018-02-20T20:54:27.670Z,107.23
2018-02-20T20:56:56.622Z,93.10
2018-02-20T20:59:25.881Z,77.37
2018-02-20T21:01:55.632Z,78.50
2018-02-20T21:04:24.686Z,64.47
2018-02-20T21:06:54.416Z,57.33
2018-02-20T21:09:24.065Z,59.70
2018-02-20T21:11:53.162Z,55.57
2018-02-20T21:14:22.547Z,50.73
2018-02-20T21:16:51.660Z,54.30
2018-02-20T21:19:20.606Z,51.83
2018-02-20T21:21:49.539Z,55.07
2018-02-20T21:24:18.485Z,60.50
2018-02-20T21:26:48.347Z,59.97
2018-02-20T21:29:17.344Z,59.23
2018-02-20T21:31:46.300Z,56.03
2018-02-20T21:34:15.311Z,55.07
2018-02-20T21:36:44.221Z,53.43
2018-02-20T21:39:13.492Z,56.20
2018-02-20T21:41:42.583Z,54.17
2018-02-20T21:44:11.577Z,53.10
2018-02-20T21:46:41.379Z,52.97
2018-02-20T21:49:11.131Z,53.60
2018-02-20T21:51:40.215Z,57.80
2018-02-20T21:54:09.168Z,58.97
2018-02-20T21:56:38.246Z,84.23
2018-02-20T21:59:07.396Z,88.45
2018-02-20T22:01:36.297Z,71.03
2018-02-20T22:04:05.322Z,70.72
2018-02-20T22:06:35.273Z,63.07
2018-02-20T22:09:04.361Z,63.80
2018-02-20T22:11:33.312Z,55.38
2018-02-20T22:14:02.468Z,56.00
2018-02-20T22:16:31.679Z,55.67
2018-02-20T22:19:00.844Z,52.35
2018-02-20T22:21:29.790Z,55.80
2018-02-20T22:23:58.716Z,50.45
2018-02-20T22:26:27.750Z,50.55
2018-02-20T22:28:56.668Z,51.35
2018-02-20T22:31:25.608Z,51.03
2018-02-20T22:33:55.390Z,51.70
2018-02-20T22:36:24.485Z,51.92
2018-02-20T22:38:53.491Z,53.20
2018-02-20T22:41:22.400Z,53.72
2018-02-20T22:43:51.336Z,54.45
2018-02-20T22:46:20.311Z,54.20
2018-02-20T22:48:49.239Z,54.72
2018-02-20T22:51:18.425Z,55.90
2018-02-20T22:53:47.660Z,56.08
2018-02-20T22:56:16.761Z,55.15
2018-02-20T22:58:45.988Z,53.35
2018-02-20T23:01:14.973Z,53.80
2018-02-20T23:03:43.949Z,53.45
2018-02-20T23:06:13.734Z,53.10
2018-02-20T23:08:42.881Z,53.85
2018-02-20T23:11:11.880Z,55.28
2018-02-20T23:13:40.640Z,54.88
2018-02-20T23:16:09.584Z,57.53
2018-02-20T23:18:38.599Z,59.33
2018-02-20T23:21:08.143Z,53.67
2018-02-20T23:23:37.939Z,57.03
2018-02-20T23:26:07.553Z,59.70
2018-02-20T23:28:36.486Z,61.80
2018-02-20T23:31:05.531Z,60.60
2018-02-20T23:33:34.706Z,62.17
2018-02-20T23:36:03.628Z,63.80
2018-02-20T23:38:33.244Z,65.12
2018-02-20T23:41:02.144Z,62.17
2018-02-20T23:43:31.265Z,63.00
2018-02-20T23:46:00.187Z,63.17
2018-02-20T23:48:29.315Z,70.05
2018-02-20T23:51:04.007Z,63.95
2018-02-20T23:53:32.931Z,67.25
2018-02-20T23:56:01.910Z,63.38
2018-02-20T23:58:31.963Z,61.90
